Aérodrome :
LOGIN :

S'inscrire | Disclaimer

   EN    FR    IT 

 










Légende :    VFR   VFR Marginal   IFR   IFR Intensif   IFR Très Intensif
Visi : 
Plafond : 
>= 8 km
>= 3000ft
5 à 8 km
1000 à 3000 ft
1500m à 5 km
500 à 1000 ft
800 à 1500m
200 à 500 ft
< 800m
< 200 ft
Symboles :   Orages  Brouillard  Fortes neiges  Fortes précipitations  Vent > 20 kt
SIGMETs :   Divers  Orages  Givrage  Turbulence  Onde Orograph.  Cendres Volcan.






- Altitude de l'aérodrome : 20 ft


EBFN - Koksijde

DERNIER METAR :
  • 290634Z 23009KT 9999 VCSH FEW020 BKN070 15/13 Q1010 RESHRA BLU BLU TEMPO WHT

METARs EXPIRÉS :
  • 290625Z 23010KT 7000 -SHRA SCT018 BKN070 15/13 Q1010 WHT BLU TEMPO WHT
  • 290620Z 23013KT 7000 -SHRA SCT018 BKN070 16/13 Q1010 WHT BLU TEMPO WHT
  • 290555Z 21004KT 9999 VCSH FEW018 SCT070 15/13 Q1010 BLU BLU TEMPO WHT
  • 290455Z 22008KT 9999 VCSH FEW018 SCT075 14/12 Q1010 BLU BLU TEMPO WHT
  • 290425Z 22006KT 9999 VCSH FEW018 SCT075 14/12 Q1010 BLU BLU TEMPO WHT
  • 290406Z 21006KT 9999 FEW018 SCT075 14/12 Q1010 BLU BLU TEMPO WHT
  • 290355Z AUTO 22006KT 9999 FEW021/// BKN075/// 14/12 Q1010 BLU

TAF TAF EBFN
Valide du 28 à 19h jusqu'au 29 à 07h UTC


281541Z 2819/2907 23015G25KT 9999 FEW040 SCT090
PROB40
TEMPO 2819/2821 24020G30KT 7000 -SHRA SCT030
PROB40
TEMPO 2902/2907 SCT016



MET'MAP, la Météo Aéronautique d'un coup d'oeil ! - Copyright ORBIFLY Décembre 2007 - Disclaimer

ORBIFLY MET'MAP TEAM :

Programmation & Développement : Alexandra Zaïnal
Sur une idée originale de : Baudouin d'Aumeries
Assistance à la programmation : Marc-Olivier Méhu
Soutien technique & logistique : Manuel Goepfert

Contact : metmap@orbifly.com




SOURCES & CREDITS :

   NOAA